sensor_id;sensor_type;location;lat;lon;timestamp;pressure;altitude;pressure_sealevel;temperature;humidity
22025;BME280;11176;51.448;6.650;2022-10-19T00:00:28;45586.09;;;-141.29;100.00
22025;BME280;11176;51.448;6.650;2022-10-19T00:02:55;45586.09;;;-141.29;100.00
22025;BME280;11176;51.448;6.650;2022-10-19T00:05:21;45570.09;;;-141.29;100.00
22025;BME280;11176;51.448;6.650;2022-10-19T00:07:47;45582.09;;;-141.29;100.00
22025;BME280;11176;51.448;6.650;2022-10-19T00:10:14;45574.09;;;-141.29;100.00
22025;BME280;11176;51.448;6.650;2022-10-19T00:12:40;45554.09;;;-141.29;100.00
22025;BME280;11176;51.448;6.650;2022-10-19T00:15:07;45594.09;;;-141.29;100.00
22025;BME280;11176;51.448;6.650;2022-10-19T00:17:34;45592.09;;;-141.29;100.00
22025;BME280;11176;51.448;6.650;2022-10-19T00:20:01;45570.09;;;-141.29;100.00
22025;BME280;11176;51.448;6.650;2022-10-19T00:22:27;45588.09;;;-141.29;100.00
22025;BME280;11176;51.448;6.650;2022-10-19T00:24:56;45590.09;;;-141.29;100.00
22025;BME280;11176;51.448;6.650;2022-10-19T00:27:23;45588.09;;;-141.29;100.00
22025;BME280;11176;51.448;6.650;2022-10-19T00:29:49;45586.09;;;-141.29;100.00
22025;BME280;11176;51.448;6.650;2022-10-19T00:32:15;45566.09;;;-141.29;100.00
22025;BME280;11176;51.448;6.650;2022-10-19T00:34:42;45590.09;;;-141.29;100.00
22025;BME280;11176;51.448;6.650;2022-10-19T00:37:08;45586.09;;;-141.29;100.00
22025;BME280;11176;51.448;6.650;2022-10-19T00:39:35;45606.06;;;-141.29;100.00
22025;BME280;11176;51.448;6.650;2022-10-19T00:42:01;45592.09;;;-141.29;100.00
22025;BME280;11176;51.448;6.650;2022-10-19T00:46:58;45610.06;;;-141.29;100.00
22025;BME280;11176;51.448;6.650;2022-10-19T00:49:29;45582.09;;;-141.29;100.00
22025;BME280;11176;51.448;6.650;2022-10-19T00:52:02;45606.06;;;-141.29;100.00
22025;BME280;11176;51.448;6.650;2022-10-19T00:54:33;45602.06;;;-141.29;100.00
22025;BME280;11176;51.448;6.650;2022-10-19T00:57:02;45594.09;;;-141.29;100.00
22025;BME280;11176;51.448;6.650;2022-10-19T00:59:30;45602.06;;;-141.29;100.00
22025;BME280;11176;51.448;6.650;2022-10-19T01:01:58;45582.09;;;-141.29;100.00
22025;BME280;11176;51.448;6.650;2022-10-19T01:04:25;45596.06;;;-141.29;100.00
22025;BME280;11176;51.448;6.650;2022-10-19T01:06:53;45586.09;;;-141.29;100.00
22025;BME280;11176;51.448;6.650;2022-10-19T01:09:20;45590.09;;;-141.29;100.00
22025;BME280;11176;51.448;6.650;2022-10-19T01:12:03;45620.06;;;-141.29;100.00
22025;BME280;11176;51.448;6.650;2022-10-19T01:17:23;45594.09;;;-141.29;100.00
22025;BME280;11176;51.448;6.650;2022-10-19T01:27:56;45610.06;;;-141.29;100.00
22025;BME280;11176;51.448;6.650;2022-10-19T01:31:00;45600.06;;;-141.29;100.00
22025;BME280;11176;51.448;6.650;2022-10-19T01:33:32;45598.06;;;-141.29;100.00
22025;BME280;11176;51.448;6.650;2022-10-19T01:36:22;45594.09;;;-141.29;100.00
22025;BME280;11176;51.448;6.650;2022-10-19T01:39:29;45618.06;;;-141.29;100.00
22025;BME280;11176;51.448;6.650;2022-10-19T01:47:30;45612.06;;;-141.29;100.00
22025;BME280;11176;51.448;6.650;2022-10-19T01:50:05;45614.06;;;-141.29;100.00
22025;BME280;11176;51.448;6.650;2022-10-19T01:52:35;45606.06;;;-141.29;100.00
22025;BME280;11176;51.448;6.650;2022-10-19T01:55:03;45600.06;;;-141.29;100.00
22025;BME280;11176;51.448;6.650;2022-10-19T01:57:33;45616.06;;;-141.29;100.00
22025;BME280;11176;51.448;6.650;2022-10-19T02:00:03;45578.09;;;-141.29;100.00
22025;BME280;11176;51.448;6.650;2022-10-19T02:02:44;45604.06;;;-141.29;100.00
22025;BME280;11176;51.448;6.650;2022-10-19T02:05:12;45614.06;;;-141.29;100.00
22025;BME280;11176;51.448;6.650;2022-10-19T02:07:40;45594.09;;;-141.29;100.00
22025;BME280;11176;51.448;6.650;2022-10-19T02:10:10;45588.09;;;-141.29;100.00
22025;BME280;11176;51.448;6.650;2022-10-19T02:12:37;45606.06;;;-141.29;100.00
22025;BME280;11176;51.448;6.650;2022-10-19T02:15:09;45594.09;;;-141.29;100.00
22025;BME280;11176;51.448;6.650;2022-10-19T02:17:42;45598.06;;;-141.29;100.00
22025;BME280;11176;51.448;6.650;2022-10-19T02:20:09;45614.06;;;-141.29;100.00
22025;BME280;11176;51.448;6.650;2022-10-19T02:22:36;45616.06;;;-141.29;100.00
22025;BME280;11176;51.448;6.650;2022-10-19T02:25:03;45610.06;;;-141.29;100.00
22025;BME280;11176;51.448;6.650;2022-10-19T02:27:30;45602.06;;;-141.29;100.00
22025;BME280;11176;51.448;6.650;2022-10-19T02:29:56;45618.06;;;-141.29;100.00
22025;BME280;11176;51.448;6.650;2022-10-19T02:32:22;45618.06;;;-141.29;100.00
22025;BME280;11176;51.448;6.650;2022-10-19T02:34:49;45634.06;;;-141.29;100.00
22025;BME280;11176;51.448;6.650;2022-10-19T02:37:15;45616.06;;;-141.29;100.00
22025;BME280;11176;51.448;6.650;2022-10-19T02:39:47;45606.06;;;-141.29;100.00
22025;BME280;11176;51.448;6.650;2022-10-19T02:42:21;45602.06;;;-141.29;100.00
22025;BME280;11176;51.448;6.650;2022-10-19T02:44:57;45618.06;;;-141.29;100.00
22025;BME280;11176;51.448;6.650;2022-10-19T02:47:30;45634.06;;;-141.29;100.00
22025;BME280;11176;51.448;6.650;2022-10-19T02:49:59;45606.06;;;-141.29;100.00
22025;BME280;11176;51.448;6.650;2022-10-19T02:52:26;45604.06;;;-141.29;100.00
22025;BME280;11176;51.448;6.650;2022-10-19T02:54:52;45618.06;;;-141.29;100.00
22025;BME280;11176;51.448;6.650;2022-10-19T02:57:22;45614.06;;;-141.29;100.00
22025;BME280;11176;51.448;6.650;2022-10-19T02:59:49;45606.06;;;-141.29;100.00
22025;BME280;11176;51.448;6.650;2022-10-19T03:02:16;45630.06;;;-141.29;100.00
22025;BME280;11176;51.448;6.650;2022-10-19T03:04:43;45618.06;;;-141.29;100.00
22025;BME280;11176;51.448;6.650;2022-10-19T03:07:12;45630.06;;;-141.29;100.00
22025;BME280;11176;51.448;6.650;2022-10-19T03:09:40;45614.06;;;-141.29;100.00
22025;BME280;11176;51.448;6.650;2022-10-19T03:12:07;45626.06;;;-141.29;100.00
22025;BME280;11176;51.448;6.650;2022-10-19T03:14:33;45620.06;;;-141.29;100.00
22025;BME280;11176;51.448;6.650;2022-10-19T03:17:00;45622.06;;;-141.29;100.00
22025;BME280;11176;51.448;6.650;2022-10-19T03:19:27;45634.06;;;-141.29;100.00
22025;BME280;11176;51.448;6.650;2022-10-19T03:21:53;45606.06;;;-141.29;100.00
22025;BME280;11176;51.448;6.650;2022-10-19T03:24:21;45616.06;;;-141.29;100.00
22025;BME280;11176;51.448;6.650;2022-10-19T03:26:47;45620.06;;;-141.29;100.00
22025;BME280;11176;51.448;6.650;2022-10-19T03:29:14;45610.06;;;-141.29;100.00
22025;BME280;11176;51.448;6.650;2022-10-19T03:31:40;45610.06;;;-141.29;100.00
22025;BME280;11176;51.448;6.650;2022-10-19T03:34:07;45626.06;;;-141.29;100.00
22025;BME280;11176;51.448;6.650;2022-10-19T03:36:35;45614.06;;;-141.29;100.00
22025;BME280;11176;51.448;6.650;2022-10-19T03:39:05;45612.06;;;-141.29;100.00
22025;BME280;11176;51.448;6.650;2022-10-19T03:41:34;45614.06;;;-141.29;100.00
22025;BME280;11176;51.448;6.650;2022-10-19T03:44:01;45624.06;;;-141.29;100.00
22025;BME280;11176;51.448;6.650;2022-10-19T03:46:27;45606.06;;;-141.29;100.00
22025;BME280;11176;51.448;6.650;2022-10-19T03:48:54;45612.06;;;-141.29;100.00
22025;BME280;11176;51.448;6.650;2022-10-19T03:51:25;45614.06;;;-141.29;100.00
22025;BME280;11176;51.448;6.650;2022-10-19T03:53:57;45634.06;;;-141.29;100.00
22025;BME280;11176;51.448;6.650;2022-10-19T03:56:25;45614.06;;;-141.29;100.00
22025;BME280;11176;51.448;6.650;2022-10-19T03:58:54;45642.03;;;-141.29;100.00
22025;BME280;11176;51.448;6.650;2022-10-19T04:01:27;45630.06;;;-141.29;100.00
22025;BME280;11176;51.448;6.650;2022-10-19T04:03:59;45614.06;;;-141.29;100.00
22025;BME280;11176;51.448;6.650;2022-10-19T04:06:28;45624.06;;;-141.29;100.00
22025;BME280;11176;51.448;6.650;2022-10-19T04:08:55;45624.06;;;-141.29;100.00
22025;BME280;11176;51.448;6.650;2022-10-19T04:11:27;45634.06;;;-141.29;100.00
22025;BME280;11176;51.448;6.650;2022-10-19T04:13:55;45614.06;;;-141.29;100.00
22025;BME280;11176;51.448;6.650;2022-10-19T04:16:23;45626.06;;;-141.29;100.00
22025;BME280;11176;51.448;6.650;2022-10-19T04:18:50;45642.03;;;-141.29;100.00
22025;BME280;11176;51.448;6.650;2022-10-19T04:21:24;45614.06;;;-141.29;100.00
22025;BME280;11176;51.448;6.650;2022-10-19T04:23:55;45618.06;;;-141.29;100.00
22025;BME280;11176;51.448;6.650;2022-10-19T04:26:22;45630.06;;;-141.29;100.00
22025;BME280;11176;51.448;6.650;2022-10-19T04:28:49;45622.06;;;-141.29;100.00
22025;BME280;11176;51.448;6.650;2022-10-19T04:31:15;45618.06;;;-141.29;100.00
22025;BME280;11176;51.448;6.650;2022-10-19T04:33:42;45602.06;;;-141.29;100.00
22025;BME280;11176;51.448;6.650;2022-10-19T04:36:10;45628.06;;;-141.29;100.00
22025;BME280;11176;51.448;6.650;2022-10-19T04:38:37;45618.06;;;-141.29;100.00
22025;BME280;11176;51.448;6.650;2022-10-19T04:41:10;45620.06;;;-141.29;100.00
22025;BME280;11176;51.448;6.650;2022-10-19T04:43:37;45604.06;;;-141.29;100.00
22025;BME280;11176;51.448;6.650;2022-10-19T04:46:08;45618.06;;;-141.29;100.00
22025;BME280;11176;51.448;6.650;2022-10-19T04:48:36;45618.06;;;-141.29;100.00
22025;BME280;11176;51.448;6.650;2022-10-19T04:51:03;45634.06;;;-141.29;100.00
22025;BME280;11176;51.448;6.650;2022-10-19T04:53:31;45616.06;;;-141.29;100.00
22025;BME280;11176;51.448;6.650;2022-10-19T04:55:57;45614.06;;;-141.29;100.00
22025;BME280;11176;51.448;6.650;2022-10-19T04:58:24;45618.06;;;-141.29;100.00
22025;BME280;11176;51.448;6.650;2022-10-19T05:00:50;45618.06;;;-141.29;100.00
22025;BME280;11176;51.448;6.650;2022-10-19T05:03:17;45634.06;;;-141.29;100.00
22025;BME280;11176;51.448;6.650;2022-10-19T05:05:43;45614.06;;;-141.29;100.00
22025;BME280;11176;51.448;6.650;2022-10-19T05:08:10;45612.06;;;-141.29;100.00
22025;BME280;11176;51.448;6.650;2022-10-19T05:10:37;45632.06;;;-141.29;100.00
22025;BME280;11176;51.448;6.650;2022-10-19T05:13:04;45628.06;;;-141.29;100.00
22025;BME280;11176;51.448;6.650;2022-10-19T05:15:30;45610.06;;;-141.29;100.00
22025;BME280;11176;51.448;6.650;2022-10-19T05:17:57;45618.06;;;-141.29;100.00
22025;BME280;11176;51.448;6.650;2022-10-19T05:20:23;45622.06;;;-141.29;100.00
22025;BME280;11176;51.448;6.650;2022-10-19T05:22:50;45622.06;;;-141.29;100.00
22025;BME280;11176;51.448;6.650;2022-10-19T05:25:17;45626.06;;;-141.29;100.00
22025;BME280;11176;51.448;6.650;2022-10-19T05:27:43;45634.06;;;-141.29;100.00
22025;BME280;11176;51.448;6.650;2022-10-19T05:30:10;45634.06;;;-141.29;100.00
22025;BME280;11176;51.448;6.650;2022-10-19T05:32:36;45634.06;;;-141.29;100.00
22025;BME280;11176;51.448;6.650;2022-10-19T05:35:03;45618.06;;;-141.29;100.00
22025;BME280;11176;51.448;6.650;2022-10-19T05:37:29;45634.06;;;-141.29;100.00
22025;BME280;11176;51.448;6.650;2022-10-19T05:39:56;45624.06;;;-141.29;100.00
22025;BME280;11176;51.448;6.650;2022-10-19T05:42:22;45622.06;;;-141.29;100.00
22025;BME280;11176;51.448;6.650;2022-10-19T05:44:48;45636.06;;;-141.29;100.00
22025;BME280;11176;51.448;6.650;2022-10-19T05:47:15;45662.03;;;-141.29;100.00
22025;BME280;11176;51.448;6.650;2022-10-19T05:49:41;45638.06;;;-141.29;100.00
22025;BME280;11176;51.448;6.650;2022-10-19T05:52:08;45642.03;;;-141.29;100.00
22025;BME280;11176;51.448;6.650;2022-10-19T05:54:35;45644.03;;;-141.29;100.00
22025;BME280;11176;51.448;6.650;2022-10-19T05:57:02;45642.03;;;-141.29;100.00
22025;BME280;11176;51.448;6.650;2022-10-19T05:59:28;45656.03;;;-141.29;100.00
22025;BME280;11176;51.448;6.650;2022-10-19T06:01:55;45658.03;;;-141.29;100.00
22025;BME280;11176;51.448;6.650;2022-10-19T06:04:21;45650.03;;;-141.29;100.00
22025;BME280;11176;51.448;6.650;2022-10-19T06:06:47;45646.03;;;-141.29;100.00
22025;BME280;11176;51.448;6.650;2022-10-19T06:09:14;45642.03;;;-141.29;100.00
22025;BME280;11176;51.448;6.650;2022-10-19T06:11:41;45624.06;;;-141.29;100.00
22025;BME280;11176;51.448;6.650;2022-10-19T06:14:12;45630.06;;;-141.29;100.00
22025;BME280;11176;51.448;6.650;2022-10-19T06:16:38;45646.03;;;-141.29;100.00
22025;BME280;11176;51.448;6.650;2022-10-19T06:19:05;45622.06;;;-141.29;100.00
22025;BME280;11176;51.448;6.650;2022-10-19T06:21:32;45640.03;;;-141.29;100.00
22025;BME280;11176;51.448;6.650;2022-10-19T06:24:02;45642.03;;;-141.29;100.00
22025;BME280;11176;51.448;6.650;2022-10-19T06:26:30;45656.03;;;-141.29;100.00
22025;BME280;11176;51.448;6.650;2022-10-19T06:28:58;45630.06;;;-141.29;100.00
22025;BME280;11176;51.448;6.650;2022-10-19T06:31:30;45648.03;;;-141.29;100.00
22025;BME280;11176;51.448;6.650;2022-10-19T06:33:57;45638.06;;;-141.29;100.00
22025;BME280;11176;51.448;6.650;2022-10-19T06:36:27;45636.06;;;-141.29;100.00
22025;BME280;11176;51.448;6.650;2022-10-19T06:38:54;45642.03;;;-141.29;100.00
22025;BME280;11176;51.448;6.650;2022-10-19T06:41:22;45658.03;;;-141.29;100.00
22025;BME280;11176;51.448;6.650;2022-10-19T06:43:52;45638.06;;;-141.29;100.00
22025;BME280;11176;51.448;6.650;2022-10-19T06:46:21;45642.03;;;-141.29;100.00
22025;BME280;11176;51.448;6.650;2022-10-19T06:48:59;45654.03;;;-141.29;100.00
22025;BME280;11176;51.448;6.650;2022-10-19T06:51:27;45650.03;;;-141.29;100.00
22025;BME280;11176;51.448;6.650;2022-10-19T06:53:54;45650.03;;;-141.29;100.00
22025;BME280;11176;51.448;6.650;2022-10-19T06:56:23;45644.03;;;-141.29;100.00
22025;BME280;11176;51.448;6.650;2022-10-19T06:58:50;45642.03;;;-141.29;100.00
22025;BME280;11176;51.448;6.650;2022-10-19T07:01:17;45646.03;;;-141.29;100.00
22025;BME280;11176;51.448;6.650;2022-10-19T07:03:45;45646.03;;;-141.29;100.00
22025;BME280;11176;51.448;6.650;2022-10-19T07:06:12;45632.06;;;-141.29;100.00
22025;BME280;11176;51.448;6.650;2022-10-19T07:08:40;45624.06;;;-141.29;100.00
22025;BME280;11176;51.448;6.650;2022-10-19T07:11:09;45618.06;;;-141.29;100.00
22025;BME280;11176;51.448;6.650;2022-10-19T07:13:36;45624.06;;;-141.29;100.00
22025;BME280;11176;51.448;6.650;2022-10-19T07:16:04;45622.06;;;-141.29;100.00
22025;BME280;11176;51.448;6.650;2022-10-19T07:18:35;45614.06;;;-141.29;100.00
22025;BME280;11176;51.448;6.650;2022-10-19T07:21:04;45614.06;;;-141.29;100.00
22025;BME280;11176;51.448;6.650;2022-10-19T07:23:33;45622.06;;;-141.29;100.00
22025;BME280;11176;51.448;6.650;2022-10-19T07:26:09;45606.06;;;-141.29;100.00
22025;BME280;11176;51.448;6.650;2022-10-19T07:28:39;45606.06;;;-141.29;100.00
22025;BME280;11176;51.448;6.650;2022-10-19T07:31:08;45606.06;;;-141.29;100.00
22025;BME280;11176;51.448;6.650;2022-10-19T07:33:35;45614.06;;;-141.29;100.00
22025;BME280;11176;51.448;6.650;2022-10-19T07:36:04;45606.06;;;-141.29;100.00
22025;BME280;11176;51.448;6.650;2022-10-19T07:38:32;45602.06;;;-141.29;100.00
22025;BME280;11176;51.448;6.650;2022-10-19T07:43:31;45602.06;;;-141.29;100.00
22025;BME280;11176;51.448;6.650;2022-10-19T07:46:03;45606.06;;;-141.29;100.00
22025;BME280;11176;51.448;6.650;2022-10-19T07:48:31;45596.06;;;-141.29;100.00
22025;BME280;11176;51.448;6.650;2022-10-19T07:51:03;45606.06;;;-141.29;100.00
22025;BME280;11176;51.448;6.650;2022-10-19T07:53:30;45598.06;;;-141.29;100.00
22025;BME280;11176;51.448;6.650;2022-10-19T07:56:11;45606.06;;;-141.29;100.00
22025;BME280;11176;51.448;6.650;2022-10-19T07:58:38;45602.06;;;-141.29;100.00
22025;BME280;11176;51.448;6.650;2022-10-19T08:01:07;45586.09;;;-141.29;100.00
22025;BME280;11176;51.448;6.650;2022-10-19T08:03:35;45606.06;;;-141.29;100.00
22025;BME280;11176;51.448;6.650;2022-10-19T08:06:21;45602.06;;;-141.29;100.00
22025;BME280;11176;51.448;6.650;2022-10-19T08:08:51;45570.09;;;-141.29;100.00
22025;BME280;11176;51.448;6.650;2022-10-19T08:11:24;45566.09;;;-141.29;100.00
22025;BME280;11176;51.448;6.650;2022-10-19T08:13:51;45590.09;;;-141.29;100.00
22025;BME280;11176;51.448;6.650;2022-10-19T08:16:37;45586.09;;;-141.29;100.00
22025;BME280;11176;51.448;6.650;2022-10-19T08:19:12;45582.09;;;-141.29;100.00
22025;BME280;11176;51.448;6.650;2022-10-19T08:21:40;45574.09;;;-141.29;100.00
22025;BME280;11176;51.448;6.650;2022-10-19T08:24:08;45602.06;;;-141.29;100.00
22025;BME280;11176;51.448;6.650;2022-10-19T08:26:36;45562.09;;;-141.29;100.00
22025;BME280;11176;51.448;6.650;2022-10-19T08:29:06;45558.09;;;-141.29;100.00
22025;BME280;11176;51.448;6.650;2022-10-19T08:31:33;45586.09;;;-141.29;100.00
22025;BME280;11176;51.448;6.650;2022-10-19T08:34:00;45568.09;;;-141.29;100.00
22025;BME280;11176;51.448;6.650;2022-10-19T08:36:26;45570.09;;;-141.29;100.00
22025;BME280;11176;51.448;6.650;2022-10-19T08:38:56;45546.13;;;-141.29;100.00
22025;BME280;11176;51.448;6.650;2022-10-19T08:49:49;45560.09;;;-141.29;100.00
22025;BME280;11176;51.448;6.650;2022-10-19T08:52:21;45558.09;;;-141.29;100.00
22025;BME280;11176;51.448;6.650;2022-10-19T08:54:58;45554.09;;;-141.29;100.00
22025;BME280;11176;51.448;6.650;2022-10-19T09:00:50;45552.13;;;-141.29;100.00
22025;BME280;11176;51.448;6.650;2022-10-19T09:03:40;45544.13;;;-141.29;100.00
22025;BME280;11176;51.448;6.650;2022-10-19T09:08:54;45538.13;;;-141.29;100.00
22025;BME280;11176;51.448;6.650;2022-10-19T09:11:24;45534.13;;;-141.29;100.00
22025;BME280;11176;51.448;6.650;2022-10-19T09:16:46;45538.13;;;-141.29;100.00
22025;BME280;11176;51.448;6.650;2022-10-19T09:19:26;45534.13;;;-141.29;99.52
22025;BME280;11176;51.448;6.650;2022-10-19T09:22:06;45520.13;;;-141.29;97.68
22025;BME280;11176;51.448;6.650;2022-10-19T09:24:41;45526.13;;;-141.29;97.16
22025;BME280;11176;51.448;6.650;2022-10-19T09:29:53;45524.13;;;-141.29;94.26
22025;BME280;11176;51.448;6.650;2022-10-19T09:32:26;45502.16;;;-141.29;94.82
22025;BME280;11176;51.448;6.650;2022-10-19T09:34:59;45522.13;;;-141.29;93.48
22025;BME280;11176;51.448;6.650;2022-10-19T09:37:28;45514.13;;;-141.29;93.35
22025;BME280;11176;51.448;6.650;2022-10-19T09:40:00;45506.16;;;-141.29;92.88
22025;BME280;11176;51.448;6.650;2022-10-19T09:42:28;45520.13;;;-141.29;92.16
22025;BME280;11176;51.448;6.650;2022-10-19T09:44:57;45502.16;;;-141.29;92.23
22025;BME280;11176;51.448;6.650;2022-10-19T09:47:41;45514.13;;;-141.29;90.44
22025;BME280;11176;51.448;6.650;2022-10-19T09:52:46;45502.16;;;-141.29;90.56
22025;BME280;11176;51.448;6.650;2022-10-19T09:57:43;45498.16;;;-141.29;89.37
22025;BME280;11176;51.448;6.650;2022-10-19T10:00:24;45502.16;;;-141.29;89.31
22025;BME280;11176;51.448;6.650;2022-10-19T10:02:53;45482.16;;;-141.29;88.25
22025;BME280;11176;51.448;6.650;2022-10-19T10:05:30;45490.16;;;-141.29;88.90
22025;BME280;11176;51.448;6.650;2022-10-19T10:07:56;45498.16;;;-141.29;88.68
22025;BME280;11176;51.448;6.650;2022-10-19T10:10:27;45484.16;;;-141.29;87.96
22025;BME280;11176;51.448;6.650;2022-10-19T10:12:59;45490.16;;;-141.29;88.75
22025;BME280;11176;51.448;6.650;2022-10-19T10:15:29;45490.16;;;-141.29;88.43
22025;BME280;11176;51.448;6.650;2022-10-19T10:18:00;45476.16;;;-141.29;87.76
22025;BME280;11176;51.448;6.650;2022-10-19T10:20:29;45474.16;;;-141.29;87.03
22025;BME280;11176;51.448;6.650;2022-10-19T10:22:59;45476.16;;;-141.29;86.66
22025;BME280;11176;51.448;6.650;2022-10-19T10:25:30;45486.16;;;-141.29;88.00
22025;BME280;11176;51.448;6.650;2022-10-19T10:28:18;45478.16;;;-141.29;86.19
22025;BME280;11176;51.448;6.650;2022-10-19T10:30:46;45474.16;;;-141.29;85.73
22025;BME280;11176;51.448;6.650;2022-10-19T10:33:15;45470.19;;;-141.29;85.53
22025;BME280;11176;51.448;6.650;2022-10-19T10:36:06;45466.19;;;-141.29;82.92
22025;BME280;11176;51.448;6.650;2022-10-19T10:38:44;45450.19;;;-141.29;81.15
22025;BME280;11176;51.448;6.650;2022-10-19T10:41:17;45446.19;;;-141.29;79.92
22025;BME280;11176;51.448;6.650;2022-10-19T10:43:50;45440.19;;;-141.29;80.66
22025;BME280;11176;51.448;6.650;2022-10-19T10:46:28;45426.22;;;-141.29;78.76
22025;BME280;11176;51.448;6.650;2022-10-19T10:49:03;45428.22;;;-141.29;76.86
22025;BME280;11176;51.448;6.650;2022-10-19T10:51:37;45422.22;;;-141.29;76.24
22025;BME280;11176;51.448;6.650;2022-10-19T10:54:18;45416.22;;;-141.29;72.83
22025;BME280;11176;51.448;6.650;2022-10-19T11:00:03;45372.25;;;-141.29;65.05
22025;BME280;11176;51.448;6.650;2022-10-19T11:02:43;45370.25;;;-141.29;66.62
22025;BME280;11176;51.448;6.650;2022-10-19T11:05:19;45330.28;;;-141.29;64.36
22025;BME280;11176;51.448;6.650;2022-10-19T11:07:52;45328.28;;;-141.29;60.01
22025;BME280;11176;51.448;6.650;2022-10-19T11:10:25;45326.28;;;-141.29;57.84
22025;BME280;11176;51.448;6.650;2022-10-19T11:13:13;45318.28;;;-141.29;55.02
22025;BME280;11176;51.448;6.650;2022-10-19T11:15:52;45298.31;;;-141.29;53.25
22025;BME280;11176;51.448;6.650;2022-10-19T11:18:24;45282.31;;;-141.29;48.48
22025;BME280;11176;51.448;6.650;2022-10-19T11:21:05;45286.31;;;-141.29;50.54
22025;BME280;11176;51.448;6.650;2022-10-19T11:26:35;45272.34;;;-141.29;48.29
22025;BME280;11176;51.448;6.650;2022-10-19T11:31:58;45270.34;;;-141.29;46.03
22025;BME280;11176;51.448;6.650;2022-10-19T11:37:24;45244.34;;;-141.29;43.77
22025;BME280;11176;51.448;6.650;2022-10-19T11:40:14;45238.38;;;-141.29;42.34
22025;BME280;11176;51.448;6.650;2022-10-19T11:43:00;45244.34;;;-141.29;42.92
22025;BME280;11176;51.448;6.650;2022-10-19T11:46:04;45224.38;;;-141.29;42.95
22025;BME280;11176;51.448;6.650;2022-10-19T11:51:45;45214.38;;;-141.29;41.57
22025;BME280;11176;51.448;6.650;2022-10-19T12:00:02;45210.38;;;-141.29;38.26
22025;BME280;11176;51.448;6.650;2022-10-19T12:03:09;45202.38;;;-141.29;38.46
22025;BME280;11176;51.448;6.650;2022-10-19T12:08:28;45194.41;;;-141.29;36.88
22025;BME280;11176;51.448;6.650;2022-10-19T12:11:11;45210.38;;;-141.29;36.48
22025;BME280;11176;51.448;6.650;2022-10-19T12:13:50;45202.38;;;-141.29;36.33
22025;BME280;11176;51.448;6.650;2022-10-19T12:16:20;45198.41;;;-141.29;36.51
22025;BME280;11176;51.448;6.650;2022-10-19T12:18:52;45202.38;;;-141.29;37.30
22025;BME280;11176;51.448;6.650;2022-10-19T12:21:27;45198.41;;;-141.29;37.87
22025;BME280;11176;51.448;6.650;2022-10-19T12:24:00;45202.38;;;-141.29;36.54
22025;BME280;11176;51.448;6.650;2022-10-19T12:26:31;45194.41;;;-141.29;36.99
22025;BME280;11176;51.448;6.650;2022-10-19T12:29:02;45218.38;;;-141.29;37.06
22025;BME280;11176;51.448;6.650;2022-10-19T12:31:31;45194.41;;;-141.29;37.34
22025;BME280;11176;51.448;6.650;2022-10-19T12:39:34;45206.38;;;-141.29;37.37
22025;BME280;11176;51.448;6.650;2022-10-19T12:42:16;45186.41;;;-141.29;37.39
22025;BME280;11176;51.448;6.650;2022-10-19T12:48:18;45176.41;;;-141.29;35.39
22025;BME280;11176;51.448;6.650;2022-10-19T12:53:26;45170.41;;;-141.29;34.84
22025;BME280;11176;51.448;6.650;2022-10-19T12:56:23;45158.44;;;-141.29;34.06
22025;BME280;11176;51.448;6.650;2022-10-19T12:58:54;45146.44;;;-141.29;33.14
22025;BME280;11176;51.448;6.650;2022-10-19T13:01:41;45138.44;;;-141.29;32.27
22025;BME280;11176;51.448;6.650;2022-10-19T13:04:14;45144.44;;;-141.29;31.89
22025;BME280;11176;51.448;6.650;2022-10-19T13:06:44;45138.44;;;-141.29;31.57
22025;BME280;11176;51.448;6.650;2022-10-19T13:09:24;45130.44;;;-141.29;31.37
22025;BME280;11176;51.448;6.650;2022-10-19T13:14:55;45138.44;;;-141.29;30.93
22025;BME280;11176;51.448;6.650;2022-10-19T13:25:26;45112.47;;;-141.29;30.50
22025;BME280;11176;51.448;6.650;2022-10-19T13:38:35;45108.47;;;-141.29;29.49
22025;BME280;11176;51.448;6.650;2022-10-19T13:41:16;45098.47;;;-141.29;29.24
22025;BME280;11176;51.448;6.650;2022-10-19T13:44:00;45102.47;;;-141.29;29.32
22025;BME280;11176;51.448;6.650;2022-10-19T13:51:35;45114.47;;;-141.29;29.74
22025;BME280;11176;51.448;6.650;2022-10-19T13:57:09;45128.47;;;-141.29;30.77
22025;BME280;11176;51.448;6.650;2022-10-19T14:05:57;45164.44;;;-141.29;31.68
22025;BME280;11176;51.448;6.650;2022-10-19T14:11:37;45164.44;;;-141.29;32.55
22025;BME280;11176;51.448;6.650;2022-10-19T14:16:32;45184.41;;;-141.29;33.70
22025;BME280;11176;51.448;6.650;2022-10-19T14:18:59;45178.41;;;-141.29;34.53
22025;BME280;11176;51.448;6.650;2022-10-19T14:21:33;45210.38;;;-141.29;34.93
22025;BME280;11176;51.448;6.650;2022-10-19T14:23:59;45198.41;;;-141.29;36.02
22025;BME280;11176;51.448;6.650;2022-10-19T14:26:28;45198.41;;;-141.29;36.29
22025;BME280;11176;51.448;6.650;2022-10-19T14:28:57;45222.38;;;-141.29;37.47
22025;BME280;11176;51.448;6.650;2022-10-19T14:31:30;45226.38;;;-141.29;37.66
22025;BME280;11176;51.448;6.650;2022-10-19T14:34:01;45234.38;;;-141.29;38.50
22025;BME280;11176;51.448;6.650;2022-10-19T14:36:32;45224.38;;;-141.29;39.48
22025;BME280;11176;51.448;6.650;2022-10-19T14:39:00;45238.38;;;-141.29;40.18
22025;BME280;11176;51.448;6.650;2022-10-19T14:43:55;45242.34;;;-141.29;40.98
22025;BME280;11176;51.448;6.650;2022-10-19T14:46:32;45262.34;;;-141.29;41.85
22025;BME280;11176;51.448;6.650;2022-10-19T14:49:01;45266.34;;;-141.29;42.80
22025;BME280;11176;51.448;6.650;2022-10-19T14:51:40;45270.34;;;-141.29;44.16
22025;BME280;11176;51.448;6.650;2022-10-19T14:56:48;45270.34;;;-141.29;45.76
22025;BME280;11176;51.448;6.650;2022-10-19T14:59:49;45302.31;;;-141.29;47.31